Kilbourne, Illinois
Current Conditions -  °F | °C
As of 2:52 PM on Tuesday 25 Nov 2014 (Local Time) from KSPI Reporting Station
Scattered Clouds Scattered Clouds  
Wind Chill: 28°   Ceiling: Unl
Heat Index: 34°   Visibility: 10mi
Dew Point: 24°   Wind: 7mph
Humidity: 67%   Direction: 290°WNW
Pressure: 30.15"   Gusts: NA
Location:  40.15°N, 90.01°W
Report Text: KSPI 252052Z 29006KT 10SM SCT022 01/M04 A3015 RMK AO2 SLP214 T00111044 58011
Loading
Personal Weather Stations






























Interactive Weather Map New forecast layout! Learn more

10-Day Weather Forecast

Advertisements
Track Severe Weather on mobile